sensor_id;sensor_type;location;lat;lon;timestamp;P1;durP1;ratioP1;P2;durP2;ratioP2
69280;SDS011;56392;51.082;17.080;2023-10-31T00:04:29;13.27;;;2.97;;
69280;SDS011;56392;51.082;17.080;2023-10-31T00:09:52;10.10;;;3.20;;
69280;SDS011;56392;51.082;17.080;2023-10-31T00:15:15;8.57;;;2.97;;
69280;SDS011;56392;51.082;17.080;2023-10-31T00:20:39;9.63;;;2.93;;
69280;SDS011;56392;51.082;17.080;2023-10-31T00:26:02;7.53;;;3.07;;
69280;SDS011;56392;51.082;17.080;2023-10-31T00:31:25;7.90;;;2.40;;
69280;SDS011;56392;51.082;17.080;2023-10-31T00:36:50;9.35;;;2.70;;
69280;SDS011;56392;51.082;17.080;2023-10-31T00:42:13;10.47;;;2.87;;
69280;SDS011;56392;51.082;17.080;2023-10-31T00:47:38;11.18;;;2.70;;
69280;SDS011;56392;51.082;17.080;2023-10-31T00:53:03;9.45;;;2.42;;
69280;SDS011;56392;51.082;17.080;2023-10-31T00:58:26;8.50;;;2.43;;
69280;SDS011;56392;51.082;17.080;2023-10-31T01:03:49;8.75;;;2.28;;
69280;SDS011;56392;51.082;17.080;2023-10-31T01:09:13;9.90;;;2.35;;
69280;SDS011;56392;51.082;17.080;2023-10-31T01:14:36;9.30;;;2.03;;
69280;SDS011;56392;51.082;17.080;2023-10-31T01:19:59;9.73;;;2.10;;
69280;SDS011;56392;51.082;17.080;2023-10-31T01:25:24;7.18;;;2.10;;
69280;SDS011;56392;51.082;17.080;2023-10-31T01:30:47;8.73;;;2.00;;
69280;SDS011;56392;51.082;17.080;2023-10-31T01:36:10;8.27;;;1.90;;
69280;SDS011;56392;51.082;17.080;2023-10-31T01:41:37;7.78;;;2.30;;
69280;SDS011;56392;51.082;17.080;2023-10-31T01:47:00;12.07;;;1.98;;
69280;SDS011;56392;51.082;17.080;2023-10-31T01:52:23;5.93;;;1.70;;
69280;SDS011;56392;51.082;17.080;2023-10-31T01:57:48;6.97;;;2.00;;
69280;SDS011;56392;51.082;17.080;2023-10-31T02:03:11;8.98;;;2.25;;
69280;SDS011;56392;51.082;17.080;2023-10-31T02:08:35;7.63;;;1.70;;
69280;SDS011;56392;51.082;17.080;2023-10-31T02:14:00;7.47;;;1.90;;
69280;SDS011;56392;51.082;17.080;2023-10-31T02:19:23;8.10;;;2.25;;
69280;SDS011;56392;51.082;17.080;2023-10-31T02:24:48;8.32;;;2.00;;
69280;SDS011;56392;51.082;17.080;2023-10-31T02:30:11;8.23;;;2.43;;
69280;SDS011;56392;51.082;17.080;2023-10-31T02:35:35;8.38;;;1.88;;
69280;SDS011;56392;51.082;17.080;2023-10-31T02:41:00;7.38;;;1.67;;
69280;SDS011;56392;51.082;17.080;2023-10-31T02:46:25;9.53;;;2.10;;
69280;SDS011;56392;51.082;17.080;2023-10-31T02:51:48;9.65;;;1.70;;
69280;SDS011;56392;51.082;17.080;2023-10-31T02:57:12;5.95;;;1.80;;
69280;SDS011;56392;51.082;17.080;2023-10-31T03:02:35;7.27;;;1.60;;
69280;SDS011;56392;51.082;17.080;2023-10-31T03:07:59;11.17;;;2.10;;
69280;SDS011;56392;51.082;17.080;2023-10-31T03:13:23;7.38;;;1.63;;
69280;SDS011;56392;51.082;17.080;2023-10-31T03:18:46;12.15;;;2.10;;
69280;SDS011;56392;51.082;17.080;2023-10-31T03:24:10;6.13;;;2.00;;
69280;SDS011;56392;51.082;17.080;2023-10-31T03:29:34;7.93;;;2.00;;
69280;SDS011;56392;51.082;17.080;2023-10-31T03:34:57;10.70;;;1.80;;
69280;SDS011;56392;51.082;17.080;2023-10-31T03:40:20;6.33;;;1.77;;
69280;SDS011;56392;51.082;17.080;2023-10-31T03:45:45;6.03;;;1.90;;
69280;SDS011;56392;51.082;17.080;2023-10-31T03:51:08;5.82;;;1.52;;
69280;SDS011;56392;51.082;17.080;2023-10-31T03:56:37;7.63;;;1.80;;
69280;SDS011;56392;51.082;17.080;2023-10-31T04:02:02;6.87;;;1.80;;
69280;SDS011;56392;51.082;17.080;2023-10-31T04:07:26;5.35;;;1.42;;
69280;SDS011;56392;51.082;17.080;2023-10-31T04:12:50;5.75;;;1.58;;
69280;SDS011;56392;51.082;17.080;2023-10-31T04:18:14;5.93;;;1.60;;
69280;SDS011;56392;51.082;17.080;2023-10-31T04:23:38;8.68;;;1.63;;
69280;SDS011;56392;51.082;17.080;2023-10-31T04:29:01;6.28;;;1.60;;
69280;SDS011;56392;51.082;17.080;2023-10-31T04:34:25;7.33;;;1.90;;
69280;SDS011;56392;51.082;17.080;2023-10-31T04:39:48;8.77;;;1.70;;
69280;SDS011;56392;51.082;17.080;2023-10-31T04:45:11;6.65;;;1.52;;
69280;SDS011;56392;51.082;17.080;2023-10-31T04:50:36;7.07;;;1.70;;
69280;SDS011;56392;51.082;17.080;2023-10-31T04:56:00;9.17;;;1.90;;
69280;SDS011;56392;51.082;17.080;2023-10-31T05:01:23;6.07;;;1.30;;
69280;SDS011;56392;51.082;17.080;2023-10-31T05:06:47;9.63;;;1.60;;
69280;SDS011;56392;51.082;17.080;2023-10-31T05:12:10;8.27;;;1.50;;
69280;SDS011;56392;51.082;17.080;2023-10-31T05:17:34;8.50;;;1.80;;
69280;SDS011;56392;51.082;17.080;2023-10-31T05:22:58;7.82;;;1.80;;
69280;SDS011;56392;51.082;17.080;2023-10-31T05:28:22;7.43;;;1.80;;
69280;SDS011;56392;51.082;17.080;2023-10-31T05:33:45;7.72;;;1.70;;
69280;SDS011;56392;51.082;17.080;2023-10-31T05:39:10;7.03;;;1.83;;
69280;SDS011;56392;51.082;17.080;2023-10-31T05:44:33;8.50;;;1.93;;
69280;SDS011;56392;51.082;17.080;2023-10-31T05:49:58;9.13;;;2.10;;
69280;SDS011;56392;51.082;17.080;2023-10-31T05:55:22;12.35;;;1.98;;
69280;SDS011;56392;51.082;17.080;2023-10-31T06:00:45;8.65;;;2.03;;
69280;SDS011;56392;51.082;17.080;2023-10-31T06:06:09;8.20;;;1.80;;
69280;SDS011;56392;51.082;17.080;2023-10-31T06:11:36;8.60;;;2.45;;
69280;SDS011;56392;51.082;17.080;2023-10-31T06:17:01;10.13;;;2.40;;
69280;SDS011;56392;51.082;17.080;2023-10-31T06:22:25;8.50;;;2.50;;
69280;SDS011;56392;51.082;17.080;2023-10-31T06:27:50;8.95;;;2.20;;
69280;SDS011;56392;51.082;17.080;2023-10-31T06:33:13;8.18;;;2.20;;
69280;SDS011;56392;51.082;17.080;2023-10-31T06:38:36;6.00;;;2.07;;
69280;SDS011;56392;51.082;17.080;2023-10-31T06:44:00;7.63;;;2.93;;
69280;SDS011;56392;51.082;17.080;2023-10-31T06:49:23;11.45;;;2.47;;
69280;SDS011;56392;51.082;17.080;2023-10-31T06:54:46;8.68;;;2.50;;
69280;SDS011;56392;51.082;17.080;2023-10-31T07:00:11;9.93;;;2.70;;
69280;SDS011;56392;51.082;17.080;2023-10-31T07:05:35;9.07;;;2.85;;
69280;SDS011;56392;51.082;17.080;2023-10-31T07:10:58;8.80;;;2.90;;
69280;SDS011;56392;51.082;17.080;2023-10-31T07:16:23;9.17;;;2.70;;
69280;SDS011;56392;51.082;17.080;2023-10-31T07:21:46;8.77;;;2.42;;
69280;SDS011;56392;51.082;17.080;2023-10-31T07:27:09;8.00;;;2.85;;
69280;SDS011;56392;51.082;17.080;2023-10-31T07:32:34;6.77;;;2.40;;
69280;SDS011;56392;51.082;17.080;2023-10-31T07:37:57;5.50;;;2.20;;
69280;SDS011;56392;51.082;17.080;2023-10-31T07:43:20;6.93;;;1.75;;
69280;SDS011;56392;51.082;17.080;2023-10-31T07:48:45;6.03;;;1.45;;
69280;SDS011;56392;51.082;17.080;2023-10-31T07:54:08;4.80;;;1.30;;
69280;SDS011;56392;51.082;17.080;2023-10-31T07:59:32;6.28;;;1.30;;
69280;SDS011;56392;51.082;17.080;2023-10-31T08:04:57;4.25;;;1.10;;
69280;SDS011;56392;51.082;17.080;2023-10-31T08:10:20;6.63;;;1.40;;
69280;SDS011;56392;51.082;17.080;2023-10-31T08:15:43;6.18;;;1.60;;
69280;SDS011;56392;51.082;17.080;2023-10-31T08:21:07;6.93;;;1.20;;
69280;SDS011;56392;51.082;17.080;2023-10-31T08:26:30;5.50;;;1.10;;
69280;SDS011;56392;51.082;17.080;2023-10-31T08:31:54;3.90;;;1.00;;
69280;SDS011;56392;51.082;17.080;2023-10-31T08:37:18;4.72;;;1.25;;
69280;SDS011;56392;51.082;17.080;2023-10-31T08:42:41;4.05;;;1.10;;
69280;SDS011;56392;51.082;17.080;2023-10-31T08:48:06;5.80;;;1.17;;
69280;SDS011;56392;51.082;17.080;2023-10-31T08:53:30;4.32;;;1.20;;
69280;SDS011;56392;51.082;17.080;2023-10-31T08:58:53;4.30;;;1.27;;
69280;SDS011;56392;51.082;17.080;2023-10-31T09:04:16;6.03;;;1.43;;
69280;SDS011;56392;51.082;17.080;2023-10-31T09:09:41;5.57;;;1.40;;
69280;SDS011;56392;51.082;17.080;2023-10-31T09:15:05;4.60;;;1.08;;
69280;SDS011;56392;51.082;17.080;2023-10-31T09:20:28;4.93;;;1.00;;
69280;SDS011;56392;51.082;17.080;2023-10-31T09:25:53;5.63;;;1.30;;
69280;SDS011;56392;51.082;17.080;2023-10-31T09:31:16;5.03;;;1.25;;
69280;SDS011;56392;51.082;17.080;2023-10-31T09:36:39;6.03;;;1.30;;
69280;SDS011;56392;51.082;17.080;2023-10-31T09:42:05;3.93;;;1.00;;
69280;SDS011;56392;51.082;17.080;2023-10-31T09:47:29;3.85;;;1.00;;
69280;SDS011;56392;51.082;17.080;2023-10-31T09:52:54;4.07;;;1.15;;
69280;SDS011;56392;51.082;17.080;2023-10-31T09:58:21;10.90;;;2.13;;
69280;SDS011;56392;51.082;17.080;2023-10-31T10:03:44;7.00;;;1.73;;
69280;SDS011;56392;51.082;17.080;2023-10-31T10:09:07;6.65;;;1.48;;
69280;SDS011;56392;51.082;17.080;2023-10-31T10:14:31;7.37;;;1.37;;
69280;SDS011;56392;51.082;17.080;2023-10-31T10:20:07;5.97;;;1.50;;
69280;SDS011;56392;51.082;17.080;2023-10-31T10:25:33;5.43;;;1.50;;
69280;SDS011;56392;51.082;17.080;2023-10-31T10:30:58;4.45;;;1.30;;
69280;SDS011;56392;51.082;17.080;2023-10-31T10:36:21;5.03;;;1.30;;
69280;SDS011;56392;51.082;17.080;2023-10-31T10:41:45;4.00;;;1.10;;
69280;SDS011;56392;51.082;17.080;2023-10-31T10:47:16;3.47;;;1.10;;
69280;SDS011;56392;51.082;17.080;2023-10-31T10:52:44;4.47;;;0.90;;
69280;SDS011;56392;51.082;17.080;2023-10-31T10:58:13;3.92;;;0.75;;
69280;SDS011;56392;51.082;17.080;2023-10-31T11:03:46;3.08;;;1.00;;
69280;SDS011;56392;51.082;17.080;2023-10-31T11:09:09;2.83;;;0.80;;
69280;SDS011;56392;51.082;17.080;2023-10-31T11:14:33;4.53;;;0.80;;
69280;SDS011;56392;51.082;17.080;2023-10-31T11:19:58;3.53;;;0.90;;
69280;SDS011;56392;51.082;17.080;2023-10-31T11:25:22;2.90;;;0.70;;
69280;SDS011;56392;51.082;17.080;2023-10-31T11:30:47;3.03;;;0.80;;
69280;SDS011;56392;51.082;17.080;2023-10-31T11:36:13;5.93;;;1.10;;
69280;SDS011;56392;51.082;17.080;2023-10-31T11:41:37;4.55;;;0.90;;
69280;SDS011;56392;51.082;17.080;2023-10-31T11:47:01;2.63;;;0.77;;
69280;SDS011;56392;51.082;17.080;2023-10-31T11:52:25;3.20;;;0.80;;
69280;SDS011;56392;51.082;17.080;2023-10-31T11:57:48;3.55;;;0.93;;
69280;SDS011;56392;51.082;17.080;2023-10-31T12:03:11;6.53;;;1.03;;
69280;SDS011;56392;51.082;17.080;2023-10-31T12:08:37;4.10;;;0.87;;
69280;SDS011;56392;51.082;17.080;2023-10-31T12:14:01;3.03;;;0.90;;
69280;SDS011;56392;51.082;17.080;2023-10-31T12:19:26;3.08;;;0.70;;
69280;SDS011;56392;51.082;17.080;2023-10-31T12:24:52;3.03;;;0.90;;
69280;SDS011;56392;51.082;17.080;2023-10-31T12:30:24;4.63;;;0.80;;
69280;SDS011;56392;51.082;17.080;2023-10-31T12:35:47;3.47;;;0.80;;
69280;SDS011;56392;51.082;17.080;2023-10-31T12:41:13;3.20;;;0.90;;
69280;SDS011;56392;51.082;17.080;2023-10-31T12:46:38;3.95;;;0.70;;
69280;SDS011;56392;51.082;17.080;2023-10-31T12:52:02;4.53;;;0.70;;
69280;SDS011;56392;51.082;17.080;2023-10-31T12:57:28;5.07;;;0.80;;
69280;SDS011;56392;51.082;17.080;2023-10-31T13:02:51;3.83;;;0.90;;
69280;SDS011;56392;51.082;17.080;2023-10-31T13:08:22;2.22;;;0.50;;
69280;SDS011;56392;51.082;17.080;2023-10-31T13:13:46;1.95;;;0.52;;
69280;SDS011;56392;51.082;17.080;2023-10-31T13:19:09;3.13;;;0.70;;
69280;SDS011;56392;51.082;17.080;2023-10-31T13:24:32;2.72;;;0.60;;
69280;SDS011;56392;51.082;17.080;2023-10-31T13:29:57;6.07;;;0.70;;
69280;SDS011;56392;51.082;17.080;2023-10-31T13:35:20;2.80;;;0.60;;
69280;SDS011;56392;51.082;17.080;2023-10-31T13:40:43;3.50;;;0.60;;
69280;SDS011;56392;51.082;17.080;2023-10-31T13:46:08;3.00;;;0.70;;
69280;SDS011;56392;51.082;17.080;2023-10-31T13:51:33;3.03;;;0.70;;
69280;SDS011;56392;51.082;17.080;2023-10-31T13:56:57;6.33;;;0.60;;
69280;SDS011;56392;51.082;17.080;2023-10-31T14:02:21;3.35;;;0.60;;
69280;SDS011;56392;51.082;17.080;2023-10-31T14:07:44;4.30;;;0.60;;
69280;SDS011;56392;51.082;17.080;2023-10-31T14:13:07;4.30;;;0.90;;
69280;SDS011;56392;51.082;17.080;2023-10-31T14:18:33;4.28;;;0.70;;
69280;SDS011;56392;51.082;17.080;2023-10-31T14:23:56;3.88;;;0.90;;
69280;SDS011;56392;51.082;17.080;2023-10-31T14:29:19;6.37;;;0.97;;
69280;SDS011;56392;51.082;17.080;2023-10-31T14:34:43;7.15;;;1.60;;
69280;SDS011;56392;51.082;17.080;2023-10-31T14:40:09;10.82;;;2.22;;
69280;SDS011;56392;51.082;17.080;2023-10-31T14:45:32;5.83;;;1.43;;
69280;SDS011;56392;51.082;17.080;2023-10-31T14:50:57;7.23;;;0.97;;
69280;SDS011;56392;51.082;17.080;2023-10-31T14:56:20;3.70;;;0.80;;
69280;SDS011;56392;51.082;17.080;2023-10-31T15:01:44;4.32;;;0.90;;
69280;SDS011;56392;51.082;17.080;2023-10-31T15:07:08;4.10;;;0.77;;
69280;SDS011;56392;51.082;17.080;2023-10-31T15:12:31;5.20;;;0.73;;
69280;SDS011;56392;51.082;17.080;2023-10-31T15:17:55;3.42;;;0.77;;
69280;SDS011;56392;51.082;17.080;2023-10-31T15:23:19;3.53;;;0.70;;
69280;SDS011;56392;51.082;17.080;2023-10-31T15:28:42;4.40;;;0.90;;
69280;SDS011;56392;51.082;17.080;2023-10-31T15:34:05;5.50;;;0.70;;
69280;SDS011;56392;51.082;17.080;2023-10-31T15:39:30;2.70;;;0.70;;
69280;SDS011;56392;51.082;17.080;2023-10-31T15:44:53;4.63;;;0.80;;
69280;SDS011;56392;51.082;17.080;2023-10-31T15:50:19;5.68;;;0.70;;
69280;SDS011;56392;51.082;17.080;2023-10-31T15:55:43;4.03;;;0.70;;
69280;SDS011;56392;51.082;17.080;2023-10-31T16:01:10;3.63;;;0.80;;
69280;SDS011;56392;51.082;17.080;2023-10-31T16:06:33;5.50;;;1.30;;
69280;SDS011;56392;51.082;17.080;2023-10-31T16:11:57;4.05;;;1.00;;
69280;SDS011;56392;51.082;17.080;2023-10-31T16:17:20;5.77;;;1.00;;
69280;SDS011;56392;51.082;17.080;2023-10-31T16:22:44;4.47;;;1.02;;
69280;SDS011;56392;51.082;17.080;2023-10-31T16:28:09;4.80;;;1.15;;
69280;SDS011;56392;51.082;17.080;2023-10-31T16:33:35;6.47;;;1.33;;
69280;SDS011;56392;51.082;17.080;2023-10-31T16:38:58;12.30;;;1.57;;
69280;SDS011;56392;51.082;17.080;2023-10-31T16:44:22;5.97;;;1.42;;
69280;SDS011;56392;51.082;17.080;2023-10-31T16:49:45;5.45;;;1.35;;
69280;SDS011;56392;51.082;17.080;2023-10-31T16:55:08;6.10;;;1.80;;
69280;SDS011;56392;51.082;17.080;2023-10-31T17:00:33;6.28;;;1.63;;
69280;SDS011;56392;51.082;17.080;2023-10-31T17:05:56;6.93;;;1.85;;
69280;SDS011;56392;51.082;17.080;2023-10-31T17:11:19;6.90;;;1.97;;
69280;SDS011;56392;51.082;17.080;2023-10-31T17:16:43;6.65;;;1.70;;
69280;SDS011;56392;51.082;17.080;2023-10-31T17:22:07;8.60;;;1.60;;
69280;SDS011;56392;51.082;17.080;2023-10-31T17:27:30;6.43;;;1.70;;
69280;SDS011;56392;51.082;17.080;2023-10-31T17:32:55;5.90;;;1.70;;
69280;SDS011;56392;51.082;17.080;2023-10-31T17:38:18;6.50;;;1.35;;
69280;SDS011;56392;51.082;17.080;2023-10-31T17:43:43;6.30;;;1.50;;
69280;SDS011;56392;51.082;17.080;2023-10-31T17:49:08;5.40;;;1.40;;
69280;SDS011;56392;51.082;17.080;2023-10-31T17:54:31;4.82;;;1.20;;
69280;SDS011;56392;51.082;17.080;2023-10-31T17:59:54;6.10;;;1.33;;
69280;SDS011;56392;51.082;17.080;2023-10-31T18:05:18;4.33;;;0.77;;
69280;SDS011;56392;51.082;17.080;2023-10-31T18:10:41;5.05;;;1.33;;
69280;SDS011;56392;51.082;17.080;2023-10-31T18:16:05;7.45;;;1.13;;
69280;SDS011;56392;51.082;17.080;2023-10-31T18:21:30;3.70;;;0.90;;
69280;SDS011;56392;51.082;17.080;2023-10-31T18:26:53;4.07;;;0.90;;
69280;SDS011;56392;51.082;17.080;2023-10-31T18:32:16;5.00;;;1.17;;
69280;SDS011;56392;51.082;17.080;2023-10-31T18:37:42;4.40;;;1.10;;
69280;SDS011;56392;51.082;17.080;2023-10-31T18:43:05;5.33;;;1.20;;
69280;SDS011;56392;51.082;17.080;2023-10-31T18:48:28;5.40;;;1.10;;
69280;SDS011;56392;51.082;17.080;2023-10-31T18:53:53;6.15;;;0.93;;
69280;SDS011;56392;51.082;17.080;2023-10-31T18:59:16;6.30;;;1.20;;
69280;SDS011;56392;51.082;17.080;2023-10-31T19:04:39;6.25;;;1.00;;
69280;SDS011;56392;51.082;17.080;2023-10-31T19:10:04;6.43;;;1.10;;
69280;SDS011;56392;51.082;17.080;2023-10-31T19:15:28;4.33;;;1.10;;
69280;SDS011;56392;51.082;17.080;2023-10-31T19:20:51;5.03;;;1.00;;
69280;SDS011;56392;51.082;17.080;2023-10-31T19:26:15;4.50;;;1.20;;
69280;SDS011;56392;51.082;17.080;2023-10-31T19:31:39;5.20;;;1.20;;
69280;SDS011;56392;51.082;17.080;2023-10-31T19:37:04;4.30;;;1.20;;
69280;SDS011;56392;51.082;17.080;2023-10-31T19:42:31;4.53;;;1.10;;
69280;SDS011;56392;51.082;17.080;2023-10-31T19:47:58;4.15;;;1.10;;
69280;SDS011;56392;51.082;17.080;2023-10-31T19:53:21;6.00;;;1.07;;
69280;SDS011;56392;51.082;17.080;2023-10-31T19:58:46;5.07;;;1.20;;
69280;SDS011;56392;51.082;17.080;2023-10-31T20:04:10;5.03;;;1.20;;
69280;SDS011;56392;51.082;17.080;2023-10-31T20:09:33;5.30;;;1.30;;
69280;SDS011;56392;51.082;17.080;2023-10-31T20:14:58;4.87;;;1.10;;
69280;SDS011;56392;51.082;17.080;2023-10-31T20:20:21;5.35;;;1.30;;
69280;SDS011;56392;51.082;17.080;2023-10-31T20:25:47;5.78;;;1.33;;
69280;SDS011;56392;51.082;17.080;2023-10-31T20:31:13;6.40;;;1.30;;
69280;SDS011;56392;51.082;17.080;2023-10-31T20:36:38;5.43;;;1.70;;
69280;SDS011;56392;51.082;17.080;2023-10-31T20:42:03;5.55;;;1.30;;
69280;SDS011;56392;51.082;17.080;2023-10-31T20:47:28;4.53;;;1.20;;
69280;SDS011;56392;51.082;17.080;2023-10-31T20:52:52;6.05;;;1.30;;
69280;SDS011;56392;51.082;17.080;2023-10-31T20:58:16;6.25;;;1.27;;
69280;SDS011;56392;51.082;17.080;2023-10-31T21:03:41;6.97;;;1.20;;
69280;SDS011;56392;51.082;17.080;2023-10-31T21:09:04;6.97;;;1.17;;
69280;SDS011;56392;51.082;17.080;2023-10-31T21:14:30;4.85;;;1.25;;
69280;SDS011;56392;51.082;17.080;2023-10-31T21:19:55;4.47;;;1.10;;
69280;SDS011;56392;51.082;17.080;2023-10-31T21:25:18;5.63;;;1.30;;
69280;SDS011;56392;51.082;17.080;2023-10-31T21:30:43;5.43;;;1.30;;
69280;SDS011;56392;51.082;17.080;2023-10-31T21:36:10;6.43;;;1.25;;
69280;SDS011;56392;51.082;17.080;2023-10-31T21:41:33;5.13;;;1.27;;
69280;SDS011;56392;51.082;17.080;2023-10-31T21:46:57;7.18;;;1.17;;
69280;SDS011;56392;51.082;17.080;2023-10-31T21:52:23;4.93;;;1.30;;
69280;SDS011;56392;51.082;17.080;2023-10-31T21:57:48;4.83;;;1.40;;
69280;SDS011;56392;51.082;17.080;2023-10-31T22:03:11;7.47;;;1.70;;
69280;SDS011;56392;51.082;17.080;2023-10-31T22:08:36;6.43;;;1.70;;
69280;SDS011;56392;51.082;17.080;2023-10-31T22:13:59;4.57;;;1.40;;
69280;SDS011;56392;51.082;17.080;2023-10-31T22:19:24;6.50;;;2.07;;
69280;SDS011;56392;51.082;17.080;2023-10-31T22:24:49;4.45;;;1.23;;
69280;SDS011;56392;51.082;17.080;2023-10-31T22:30:12;4.63;;;1.20;;
69280;SDS011;56392;51.082;17.080;2023-10-31T22:35:36;5.60;;;1.20;;
69280;SDS011;56392;51.082;17.080;2023-10-31T22:41:01;5.32;;;1.02;;
69280;SDS011;56392;51.082;17.080;2023-10-31T22:46:24;5.38;;;1.30;;
69280;SDS011;56392;51.082;17.080;2023-10-31T22:51:47;5.23;;;1.30;;
69280;SDS011;56392;51.082;17.080;2023-10-31T22:57:12;6.43;;;1.23;;
69280;SDS011;56392;51.082;17.080;2023-10-31T23:02:37;4.93;;;1.40;;
69280;SDS011;56392;51.082;17.080;2023-10-31T23:08:02;4.18;;;1.25;;
69280;SDS011;56392;51.082;17.080;2023-10-31T23:13:28;5.80;;;1.43;;
69280;SDS011;56392;51.082;17.080;2023-10-31T23:18:52;5.32;;;1.42;;
69280;SDS011;56392;51.082;17.080;2023-10-31T23:24:16;6.50;;;1.83;;
69280;SDS011;56392;51.082;17.080;2023-10-31T23:29:40;5.77;;;1.57;;
69280;SDS011;56392;51.082;17.080;2023-10-31T23:35:03;5.00;;;1.40;;
69280;SDS011;56392;51.082;17.080;2023-10-31T23:40:27;4.65;;;1.40;;
69280;SDS011;56392;51.082;17.080;2023-10-31T23:45:51;7.53;;;1.60;;
69280;SDS011;56392;51.082;17.080;2023-10-31T23:51:17;6.43;;;1.80;;
69280;SDS011;56392;51.082;17.080;2023-10-31T23:56:41;6.03;;;1.30;;
